createdAt,value
2019-05-25T00:04:36.410Z,8.2
2019-05-25T00:05:36.397Z,8.2
2019-05-25T00:10:36.525Z,5.1
2019-05-25T00:11:36.554Z,5.5
2019-05-25T00:12:36.597Z,3.8
2019-05-25T00:13:36.638Z,4.7
2019-05-25T00:14:36.632Z,4.7
2019-05-25T00:15:36.652Z,4.2
2019-05-25T00:16:36.666Z,4
2019-05-25T00:20:36.750Z,4.8
2019-05-25T00:21:36.749Z,4.4
2019-05-25T00:22:36.736Z,3.4
2019-05-25T00:23:36.766Z,2.5
2019-05-25T00:24:36.765Z,5.1
2019-05-25T00:25:36.766Z,3.8
2019-05-25T00:26:36.749Z,4.6
2019-05-25T00:30:36.989Z,5.5
2019-05-25T00:31:36.986Z,5.5
2019-05-25T00:32:37.019Z,5
2019-05-25T00:33:37.052Z,4.7
2019-05-25T00:34:37.068Z,5.3
2019-05-25T00:35:37.151Z,4.8
2019-05-25T00:36:37.162Z,4.7
2019-05-25T00:45:37.287Z,4.4
2019-05-25T00:54:37.549Z,7.6
2019-05-25T00:55:37.569Z,5.3
2019-05-25T00:56:37.576Z,7.2
2019-05-25T00:59:37.617Z,5
2019-05-25T01:00:37.736Z,4.3
2019-05-25T01:01:37.729Z,5.3
2019-05-25T01:02:37.733Z,4.4
2019-05-25T01:03:37.714Z,5.5
2019-05-25T01:04:37.936Z,3.7
2019-05-25T01:05:37.929Z,4.5
2019-05-25T01:06:38.108Z,7
2019-05-25T01:14:38.488Z,4.5
2019-05-25T01:15:38.485Z,5
2019-05-25T01:16:38.511Z,4.2
2019-05-25T01:20:38.528Z,5.1
2019-05-25T01:21:38.536Z,4
2019-05-25T01:22:38.542Z,7.3
2019-05-25T01:23:38.548Z,5.6
2019-05-25T01:24:44.154Z,5.6
2019-05-25T01:25:39.615Z,5
2019-05-25T01:26:38.613Z,7.2
2019-05-25T01:27:38.617Z,6.8
2019-05-25T01:28:38.612Z,3.7
2019-05-25T01:29:38.593Z,6
2019-05-25T01:30:38.606Z,3
2019-05-25T01:31:38.598Z,3.5
2019-05-25T01:32:38.600Z,4.3
2019-05-25T01:33:38.605Z,5.2
2019-05-25T01:34:38.582Z,2.9
2019-05-25T01:35:38.790Z,3.6
2019-05-25T01:36:38.802Z,3.7
2019-05-25T01:40:38.847Z,4.6
2019-05-25T01:41:38.869Z,4.5
2019-05-25T01:42:38.879Z,4.4
2019-05-25T01:43:38.875Z,3.9
2019-05-25T01:50:38.959Z,8.4
2019-05-25T01:51:38.963Z,4.7
2019-05-25T01:52:38.991Z,7.1
2019-05-25T02:06:40.721Z,5.4
2019-05-25T02:07:40.695Z,4.1
2019-05-25T02:08:40.822Z,7.1
2019-05-25T02:09:40.933Z,4.8
2019-05-25T02:10:41.054Z,5.6
2019-05-25T02:11:41.203Z,4.7
2019-05-25T02:12:41.342Z,4.8
2019-05-25T02:13:41.466Z,6.5
2019-05-25T02:18:45.439Z,7
2019-05-25T02:19:43.017Z,7.4
2019-05-25T02:20:42.139Z,5
2019-05-25T02:21:42.267Z,6.8
2019-05-25T02:22:42.443Z,6.4
2019-05-25T02:23:42.417Z,6.9
2019-05-25T02:27:42.965Z,6.4
2019-05-25T02:28:43.088Z,10.6
2019-05-25T02:29:43.193Z,8.7
2019-05-25T02:30:43.343Z,9.4
2019-05-25T02:31:43.470Z,6.7
2019-05-25T02:32:43.615Z,10.1
2019-05-25T02:33:43.603Z,8.6
2019-05-25T04:02:51.150Z,8.4
2019-05-25T04:03:51.242Z,7.5
2019-05-25T04:04:51.304Z,6.6
2019-05-25T04:05:51.471Z,7.8
2019-05-25T04:06:51.389Z,10.2
2019-05-25T04:07:51.481Z,8.8
2019-05-25T04:08:51.556Z,6.4
2019-05-25T04:09:51.629Z,8.8
2019-05-25T04:10:51.755Z,7.5
2019-05-25T04:11:51.788Z,8.8
2019-05-25T04:12:51.870Z,10.5
2019-05-25T04:13:51.968Z,10.4
2019-05-25T04:14:52.065Z,8.8
2019-05-25T04:15:52.198Z,11
2019-05-25T04:16:52.273Z,7.3
2019-05-25T04:18:52.426Z,10.1
2019-05-25T04:19:52.496Z,8.4
2019-05-25T04:20:52.637Z,8.3
2019-05-25T04:21:52.740Z,7.5
2019-05-25T04:22:52.858Z,9.1
2019-05-25T04:23:52.962Z,9.1
2019-05-25T04:24:53.110Z,6
2019-05-25T05:36:54.500Z,9.7
2019-05-25T08:31:59.224Z,6.5
2019-05-25T08:32:59.270Z,4.4
2019-05-25T08:33:59.328Z,5.9
2019-05-25T08:34:59.350Z,7.4
2019-05-25T08:35:59.384Z,7.5
2019-05-25T08:36:59.390Z,6.7
2019-05-25T08:37:59.426Z,6.8
2019-05-25T08:38:59.440Z,4.5
2019-05-25T08:39:59.450Z,9.2
2019-05-25T08:40:59.464Z,10.5
2019-05-25T08:41:59.471Z,9
2019-05-25T08:45:59.671Z,4.4
2019-05-25T08:46:59.671Z,3.2
2019-05-25T08:47:59.700Z,6.7
2019-05-25T08:48:59.849Z,4.7
2019-05-25T08:50:00.864Z,4.4
2019-05-25T08:50:59.918Z,5.8
2019-05-25T08:51:59.828Z,5.7
2019-05-25T08:53:00.313Z,5.5
2019-05-25T08:54:00.178Z,5.3
2019-05-25T08:55:00.192Z,3.5
2019-05-25T08:56:00.215Z,3.7
2019-05-25T08:58:00.381Z,4.9
2019-05-25T09:26:01.201Z,5
2019-05-25T09:27:01.213Z,3.1
2019-05-25T09:28:01.234Z,4.5
2019-05-25T09:29:04.296Z,3.3
2019-05-25T10:58:04.397Z,9.7
2019-05-25T10:59:04.503Z,5.7
2019-05-25T11:00:04.503Z,7.5
2019-05-25T13:10:27.660Z,3.2
2019-05-25T14:59:28.906Z,3.5
2019-05-25T15:48:18.477Z,4.3
2019-05-25T15:53:18.408Z,5.2
2019-05-25T15:54:18.434Z,4.8
2019-05-25T15:55:18.446Z,5.4
2019-05-25T15:56:18.453Z,4
2019-05-25T15:57:18.535Z,3.7
2019-05-25T15:58:18.714Z,3.9
2019-05-25T15:59:18.656Z,3.5
2019-05-25T16:00:18.676Z,6.2
2019-05-25T16:01:18.707Z,5.3
2019-05-25T16:02:33.866Z,3.8
2019-05-25T16:03:19.737Z,4.3
2019-05-25T16:04:18.758Z,4.2
2019-05-25T16:15:19.052Z,3.5
2019-05-25T16:16:19.078Z,5
2019-05-25T16:17:19.165Z,3.1
2019-05-25T16:18:19.174Z,3.2
2019-05-25T16:19:19.207Z,4.6
2019-05-25T16:20:19.217Z,6.8
2019-05-25T16:42:19.910Z,3
2019-05-25T16:43:20.925Z,5
2019-05-25T16:44:19.975Z,7
2019-05-25T16:45:20.002Z,3.3
2019-05-25T16:46:20.001Z,3
2019-05-25T16:47:20.015Z,4.6
2019-05-25T16:48:20.068Z,4.5
2019-05-25T16:49:20.110Z,4.4
2019-05-25T16:50:20.103Z,2.8
2019-05-25T16:51:20.126Z,4.4
2019-05-25T16:52:20.139Z,4.4
2019-05-25T16:53:20.177Z,4.5
2019-05-25T16:54:20.186Z,3.7
2019-05-25T16:55:20.209Z,4.2
2019-05-25T16:56:20.288Z,5
2019-05-25T16:57:20.320Z,4.4
2019-05-25T16:58:20.358Z,4.3
2019-05-25T16:59:20.377Z,4
2019-05-25T17:00:20.416Z,4.3
2019-05-25T17:01:20.408Z,5
2019-05-25T17:02:20.424Z,2.8
2019-05-25T17:03:27.936Z,4.9
2019-05-25T17:54:22.200Z,5.2
2019-05-25T17:55:22.297Z,7.9
2019-05-25T17:56:22.329Z,7.1
2019-05-25T18:19:23.136Z,4.5
2019-05-25T18:20:23.160Z,5.1
2019-05-25T18:21:23.200Z,4.6
2019-05-25T18:26:23.349Z,5.2
2019-05-25T18:27:23.364Z,3.4
2019-05-25T18:28:23.403Z,4.9
2019-05-25T18:29:23.958Z,3.8
2019-05-25T19:05:26.515Z,6.4
2019-05-25T19:06:26.612Z,4.6
2019-05-25T19:07:26.729Z,6.3
2019-05-25T19:08:26.816Z,5.1
2019-05-25T19:09:26.932Z,4.4
2019-05-25T20:20:33.068Z,8
2019-05-25T20:21:33.084Z,5
2019-05-25T20:22:33.082Z,6
2019-05-25T20:27:33.201Z,6.3
2019-05-25T20:28:33.202Z,6
2019-05-25T20:29:33.196Z,6.1
2019-05-25T20:30:33.231Z,6.6
2019-05-25T20:31:33.266Z,7.5
2019-05-25T20:32:33.255Z,6.9
2019-05-25T20:36:33.347Z,9.8
2019-05-25T20:38:33.452Z,10.5
2019-05-25T20:39:33.444Z,9.3
2019-05-25T20:40:33.467Z,10.7
2019-05-25T20:41:33.558Z,9.9
2019-05-25T20:42:33.568Z,8.5
2019-05-25T20:43:33.567Z,8.6
2019-05-25T20:44:33.729Z,9.2
2019-05-25T20:45:34.016Z,9.2
2019-05-25T20:46:33.901Z,9.6
2019-05-25T20:47:33.870Z,10.1
2019-05-25T20:48:34.042Z,8
2019-05-25T20:49:34.058Z,9.5
2019-05-25T20:50:34.082Z,11
2019-05-25T20:51:34.161Z,8
2019-05-25T20:52:34.192Z,10.2
2019-05-25T20:53:34.379Z,10.2
2019-05-25T20:54:34.305Z,10
2019-05-25T20:55:34.323Z,12
2019-05-25T20:56:34.369Z,8.8
2019-05-25T20:57:34.651Z,8.3
2019-05-25T21:14:35.737Z,9.4
2019-05-25T21:15:35.823Z,10.6
2019-05-25T21:16:35.949Z,9.2
2019-05-25T21:21:36.286Z,8.4
2019-05-25T21:22:36.429Z,9
2019-05-25T21:23:36.443Z,9.4
2019-05-25T22:16:38.564Z,5.6
2019-05-25T22:17:38.637Z,7.6
2019-05-25T22:20:38.970Z,5.9
2019-05-25T22:21:39.061Z,7
2019-05-25T22:22:39.055Z,6.2
2019-05-25T22:23:39.179Z,7.5
2019-05-25T22:33:39.879Z,5
2019-05-25T22:34:39.918Z,6.4
2019-05-25T22:35:39.909Z,7.3
2019-05-25T22:39:41.304Z,5.4
2019-05-25T22:40:40.366Z,6.4
2019-05-25T22:41:40.432Z,4.8
2019-05-25T22:42:40.473Z,6.4
2019-05-25T22:43:40.611Z,7.6
2019-05-25T22:44:40.664Z,6.9
2019-05-25T22:45:40.801Z,5.6
2019-05-25T22:46:40.803Z,5.8
2019-05-25T22:47:40.811Z,6.7
2019-05-25T22:48:40.865Z,6.2
2019-05-25T22:49:40.969Z,8
2019-05-25T22:50:41.119Z,5.8
2019-05-25T22:51:41.195Z,4.1
2019-05-25T22:52:41.198Z,7.1
2019-05-25T22:56:41.416Z,5.5
2019-05-25T22:57:41.555Z,5.6
2019-05-25T22:58:41.565Z,6.8
2019-05-25T22:59:41.561Z,7.2
2019-05-25T23:00:41.565Z,7.3
2019-05-25T23:01:41.644Z,7
